Continental Highway — H9LY — position and weather

sailwx.info

Track history (hours):
 
Tides and Currents Weather Stations Pressure Air Temp Water Temp Dewpoint Dewpoint Depression Visibility Wind Speed Wind Dir Waves Ship Positions

Continental Highway

Last reported at 2015-Jan-26 15:34 UTC. Time now 2015-Jan-26 16:26 UTC.
Position N 36°20' W 125°49'.

Length 199.9 m; beam 32.2 m.

Type: Cargo ship. MMSI: 351223000.

Date/timePositionNaut miles runAvg speedWind from/ knotsBaromVisibWave heightAir tempDewpointWater temp
2015-Jan-26 15:34N 36°20' W 125°49'1918.6
2015-Jan-26 14:34N 36°29' W 125°29'1918.5
2015-Jan-26 13:33N 36°38' W 125°08'1717.5
2015-Jan-26 12:33N 36°47' W 124°50'1817.7
2015-Jan-26 11:34N 36°55' W 124°30'1817.5
2015-Jan-26 10:34N 37°04' W 124°11'1818.1
2015-Jan-26 09:34N 37°13' W 123°51'1817.8
2015-Jan-26 08:34N 37°22' W 123°32'1817.8
2015-Jan-26 07:34N 37°30' W 123°12'1817.8
2015-Jan-26 06:34N 37°40' W 122°53'1413.9
2015-Jan-26 05:33N 37°46' W 122°38'1212.0
2015-Jan-26 04:34N 37°55' W 122°27'1413.8
2015-Jan-26 03:33N 38°04' W 122°14'5 4.5
2015-Jan-26 02:33N 38°02' W 122°08'0 0.0
2015-Jan-26 01:21N 38°02' W 122°08'0 0.0
2015-Jan-25 23:15N 38°02' W 122°08'0 0.0
2015-Jan-25 22:33N 38°02' W 122°08'0 0.0
2015-Jan-25 21:33N 38°02' W 122°08'0 0.0
2015-Jan-25 20:33N 38°02' W 122°08'0 0.0
2015-Jan-25 19:33N 38°02' W 122°08'0 0.0
2015-Jan-25 18:33N 38°02' W 122°08'0 0.0
2015-Jan-25 17:33N 38°02' W 122°08'0 0.0
2015-Jan-25 16:33N 38°02' W 122°08'0 0.0
2015-Jan-25 15:33N 38°02' W 122°08'0 0.0
2015-Jan-25 14:33N 38°02' W 122°08'0 0.0
2015-Jan-25 13:33N 38°02' W 122°08'0 0.0
2015-Jan-25 12:33N 38°02' W 122°08'0 0.0
2015-Jan-25 11:33N 38°02' W 122°08'0 0.0
2015-Jan-25 10:33N 38°02' W 122°08'0 0.0
2015-Jan-25 09:27N 38°02' W 122°08'0 0.0
2015-Jan-25 08:33N 38°02' W 122°08'0 0.0
2015-Jan-25 07:33N 38°02' W 122°08'0 0.0
2015-Jan-25 06:33N 38°02' W 122°08'0 0.0
2015-Jan-25 05:33N 38°02' W 122°08'0 0.0
2015-Jan-25 04:21N 38°02' W 122°08'0 0.0
2015-Jan-25 03:33N 38°02' W 122°08'0 0.0
2015-Jan-25 02:33N 38°02' W 122°08'0 0.0
2015-Jan-25 01:27N 38°02' W 122°08'0 0.0
2015-Jan-25 00:15N 38°02' W 122°08'0 0.0
2015-Jan-24 23:27N 38°02' W 122°08'0 0.0
2015-Jan-24 22:15N 38°02' W 122°08'1 1.0
2015-Jan-24 21:33N 38°02' W 122°09'1110.6
2015-Jan-24 20:33N 38°02' W 122°22'1110.5
2015-Jan-24 19:33N 37°52' W 122°25'7 6.9
2015-Jan-24 18:31N 37°45' W 122°20'0 0.1
2015-Jan-24 17:28N 37°45' W 122°20'0 0.1
2015-Jan-24 16:31N 37°46' W 122°20'0 0.1
2015-Jan-24 15:31N 37°46' W 122°20'0 0.0
2015-Jan-24 14:31N 37°46' W 122°20'0 0.1
2015-Jan-24 13:31N 37°46' W 122°20'0 0.1
2015-Jan-24 12:31N 37°45' W 122°20'0 0.1
2015-Jan-24 11:31N 37°45' W 122°20'0 0.4
2015-Jan-24 10:33N 37°45' W 122°20'1010.2
2015-Jan-24 09:34N 37°54' W 122°26'1211.8
2015-Jan-24 08:34N 38°03' W 122°17'10 9.7
2015-Jan-24 07:33N 37°57' W 122°27'1313.0
2015-Jan-24 06:33N 37°45' W 122°20'0 0.4
2015-Jan-24 05:31N 37°45' W 122°20'0 0.1
2015-Jan-24 04:31N 37°45' W 122°20'0 0.0
2015-Jan-24 03:31N 37°45' W 122°20'0 0.0
2015-Jan-24 02:31N 37°45' W 122°20'0 0.0
2015-Jan-24 01:28N 37°45' W 122°20'0 0.0
2015-Jan-24 00:31N 37°45' W 122°20'0 0.0
2015-Jan-23 23:31N 37°45' W 122°20'0 0.1
2015-Jan-23 22:31N 37°45' W 122°20'0 0.0
2015-Jan-23 21:31N 37°45' W 122°20'0 0.0
2015-Jan-23 20:31N 37°45' W 122°20'0 0.0
2015-Jan-23 19:31N 37°45' W 122°20'0 0.0
2015-Jan-23 18:28N 37°45' W 122°20'0 0.0
2015-Jan-23 17:31N 37°45' W 122°20'0 0.1
2015-Jan-23 16:31N 37°45' W 122°20'0 0.0
2015-Jan-23 15:31N 37°45' W 122°20'0 0.0
2015-Jan-23 14:31N 37°45' W 122°20'0 0.0
2015-Jan-23 13:31N 37°45' W 122°20'0 0.0
2015-Jan-23 12:31N 37°45' W 122°20'0 0.0
2015-Jan-23 11:31N 37°45' W 122°20'0 0.1
2015-Jan-23 10:31N 37°45' W 122°20'0 0.0
2015-Jan-23 09:31N 37°45' W 122°20'0 0.0
2015-Jan-23 08:31N 37°45' W 122°20'0 0.0
2015-Jan-23 07:31N 37°45' W 122°20'0 0.0
2015-Jan-23 06:31N 37°45' W 122°20'0 0.0
2015-Jan-23 05:31N 37°45' W 122°20'0 0.0
2015-Jan-23 04:31N 37°45' W 122°20'0 0.1
2015-Jan-23 03:25N 37°45' W 122°20'0 0.0
2015-Jan-23 02:31N 37°45' W 122°20'0 0.0
2015-Jan-23 01:22N 37°45' W 122°20'0 0.0
2015-Jan-23 00:31N 37°45' W 122°20'0 0.0
2015-Jan-22 23:31N 37°45' W 122°20'0 0.0
2015-Jan-22 22:31N 37°45' W 122°20'0 0.1
2015-Jan-22 21:31N 37°45' W 122°20'0 0.0
2015-Jan-22 20:31N 37°45' W 122°20'0 0.0
2015-Jan-22 19:31N 37°45' W 122°20'0 0.0
2015-Jan-22 18:31N 37°45' W 122°20'0 0.0
2015-Jan-22 17:25N 37°45' W 122°20'0 0.1
2015-Jan-22 16:31N 37°45' W 122°20'0 0.1
2015-Jan-22 15:31N 37°45' W 122°20'0 0.0
2015-Jan-22 14:31N 37°45' W 122°20'0 0.0
2015-Jan-22 13:31N 37°45' W 122°20'0 0.0
2015-Jan-22 12:28N 37°45' W 122°20'0 0.1
2015-Jan-22 11:31N 37°45' W 122°20'0 0.1
2015-Jan-22 10:31N 37°45' W 122°20'0 0.0
2015-Jan-22 09:33N 37°45' W 122°20'0 0.0
2015-Jan-22 08:33N 37°45' W 122°20'1 0.7
2015-Jan-22 07:34N 37°45' W 122°21'1211.7
2015-Jan-22 06:33N 37°47' W 122°35'10 9.8
2015-Jan-22 05:33N 37°42' W 122°46'7 6.9
2015-Jan-22 04:33N 37°38' W 122°53'1313.5
2015-Jan-22 03:34N 37°27' W 123°03'1615.6
2015-Jan-22 02:33N 37°11' W 123°02'1515.3
2015-Jan-22 01:34N 36°56' W 122°57'1515.4
2015-Jan-22 00:33N 36°42' W 122°50'1615.7
2015-Jan-21 23:33N 36°28' W 122°41'1116.1
2015-Jan-21 22:50N 36°18' W 122°33'116.0
2015-Jan-21 22:46N 36°17' W 122°33'315.5
2015-Jan-21 22:33N 36°14' W 122°31'1515.4
2015-Jan-21 21:33N 36°01' W 122°21'1515.2
2015-Jan-21 20:34N 35°48' W 122°11'1515.4
2015-Jan-21 19:34N 35°36' W 121°60'1515.4
2015-Jan-21 18:33N 35°24' W 121°48'1815.6
2015-Jan-21 17:25N 35°10' W 121°34'1515.7
2015-Jan-21 16:27N 34°58' W 121°23'1415.6
2015-Jan-21 15:33N 34°47' W 121°12'1515.0
2015-Jan-21 14:33N 34°35' W 121°01'2814.3
2015-Jan-21 12:33N 34°22' W 120°31'3316.2
2015-Jan-21 10:31N 34°13' W 119°52'1716.6
2015-Jan-21 09:29N 34°08' W 119°32'5513.1
2015-Jan-21 05:18N 33°44' W 118°33'1211.0
2015-Jan-21 04:14N 33°38' W 118°20'8 9.8
2015-Jan-21 03:25N 33°41' W 118°11'5 5.9
2015-Jan-21 02:30N 33°46' W 118°13'0 0.2
2015-Jan-21 00:26N 33°46' W 118°13'0 0.0
2015-Jan-20 23:29N 33°46' W 118°13'0 0.0
2015-Jan-20 22:29N 33°46' W 118°13'0 0.0
2015-Jan-20 21:32N 33°46' W 118°13'0 0.0
2015-Jan-20 20:32N 33°46' W 118°13'0 0.0
2015-Jan-20 19:32N 33°46' W 118°13'0 0.0
2015-Jan-20 18:32N 33°46' W 118°13'0 0.0
2015-Jan-20 17:32N 33°46' W 118°13'0 0.0
2015-Jan-20 16:32N 33°46' W 118°13'0 0.0
2015-Jan-20 15:32N 33°46' W 118°13'0 0.0
2015-Jan-20 14:32N 33°46' W 118°13'4 3.6
2015-Jan-20 13:34N 33°43' W 118°11'8 8.0
2015-Jan-20 12:34N 33°36' W 118°15'9 9.2
2015-Jan-20 11:33N 33°39' W 118°26'10 9.6
2015-Jan-20 10:33N 33°43' W 118°36'1010.4
2015-Jan-20 09:33N 33°49' W 118°47'1211.9
2015-Jan-20 08:32N 33°55' W 118°59'1212.6
2015-Jan-20 07:33N 34°01' W 119°12'1717.4
2015-Jan-20 06:34N 34°06' W 119°32'1717.0
2015-Jan-20 05:32N 34°11' W 119°52'3417.3
2015-Jan-20 03:33N 34°20' W 120°33'1717.4
2015-Jan-20 02:33N 34°24' W 120°53'1717.1
2015-Jan-20 01:33N 34°20' W 121°13'1717.0
2015-Jan-20 00:34N 34°16' W 121°33'1716.9
2015-Jan-19 23:33N 34°14' W 121°53'1717.0
2015-Jan-19 22:33N 34°10' W 122°13'1817.6
2015-Jan-19 21:33N 34°06' W 122°34'1817.6
2015-Jan-19 20:33N 34°02' W 122°55'1817.5
2015-Jan-19 19:33N 33°59' W 123°15'1717.0
2015-Jan-19 18:33N 33°56' W 123°36'1616.4
2015-Jan-19 17:33N 33°52' W 123°55'  
Track history (hours):
 
Tides and Currents Weather Stations Pressure Air Temp Water Temp Dewpoint Dewpoint Depression Visibility Wind Speed Wind Dir Waves Ship Positions

Continental Highway

Last reported at 2015-Jan-26 15:34 UTC. Time now 2015-Jan-26 16:26 UTC.
Position N 36°20' W 125°49'.

Length 199.9 m; beam 32.2 m.

Type: Cargo ship. MMSI: 351223000.

Date/timePositionNaut miles runAvg speedWind from/ knotsBaromVisibWave heightAir tempDewpointWater temp
2015-Jan-26 15:34N 36°20' W 125°49'1918.6
2015-Jan-26 14:34N 36°29' W 125°29'1918.5
2015-Jan-26 13:33N 36°38' W 125°08'1717.5
2015-Jan-26 12:33N 36°47' W 124°50'1817.7
2015-Jan-26 11:34N 36°55' W 124°30'1817.5
2015-Jan-26 10:34N 37°04' W 124°11'1818.1
2015-Jan-26 09:34N 37°13' W 123°51'1817.8
2015-Jan-26 08:34N 37°22' W 123°32'1817.8
2015-Jan-26 07:34N 37°30' W 123°12'1817.8
2015-Jan-26 06:34N 37°40' W 122°53'1413.9
2015-Jan-26 05:33N 37°46' W 122°38'1212.0
2015-Jan-26 04:34N 37°55' W 122°27'1413.8
2015-Jan-26 03:33N 38°04' W 122°14'5 4.5
2015-Jan-26 02:33N 38°02' W 122°08'0 0.0
2015-Jan-26 01:21N 38°02' W 122°08'0 0.0
2015-Jan-25 23:15N 38°02' W 122°08'0 0.0
2015-Jan-25 22:33N 38°02' W 122°08'0 0.0
2015-Jan-25 21:33N 38°02' W 122°08'0 0.0
2015-Jan-25 20:33N 38°02' W 122°08'0 0.0
2015-Jan-25 19:33N 38°02' W 122°08'0 0.0
2015-Jan-25 18:33N 38°02' W 122°08'0 0.0
2015-Jan-25 17:33N 38°02' W 122°08'0 0.0
2015-Jan-25 16:33N 38°02' W 122°08'0 0.0
2015-Jan-25 15:33N 38°02' W 122°08'0 0.0
2015-Jan-25 14:33N 38°02' W 122°08'0 0.0
2015-Jan-25 13:33N 38°02' W 122°08'0 0.0
2015-Jan-25 12:33N 38°02' W 122°08'0 0.0
2015-Jan-25 11:33N 38°02' W 122°08'0 0.0
2015-Jan-25 10:33N 38°02' W 122°08'0 0.0
2015-Jan-25 09:27N 38°02' W 122°08'0 0.0
2015-Jan-25 08:33N 38°02' W 122°08'0 0.0
2015-Jan-25 07:33N 38°02' W 122°08'0 0.0
2015-Jan-25 06:33N 38°02' W 122°08'0 0.0
2015-Jan-25 05:33N 38°02' W 122°08'0 0.0
2015-Jan-25 04:21N 38°02' W 122°08'0 0.0
2015-Jan-25 03:33N 38°02' W 122°08'0 0.0
2015-Jan-25 02:33N 38°02' W 122°08'0 0.0
2015-Jan-25 01:27N 38°02' W 122°08'0 0.0
2015-Jan-25 00:15N 38°02' W 122°08'0 0.0
2015-Jan-24 23:27N 38°02' W 122°08'0 0.0
2015-Jan-24 22:15N 38°02' W 122°08'1 1.0
2015-Jan-24 21:33N 38°02' W 122°09'1110.6
2015-Jan-24 20:33N 38°02' W 122°22'1110.5
2015-Jan-24 19:33N 37°52' W 122°25'7 6.9
2015-Jan-24 18:31N 37°45' W 122°20'0 0.1
2015-Jan-24 17:28N 37°45' W 122°20'0 0.1
2015-Jan-24 16:31N 37°46' W 122°20'0 0.1
2015-Jan-24 15:31N 37°46' W 122°20'0 0.0
2015-Jan-24 14:31N 37°46' W 122°20'0 0.1
2015-Jan-24 13:31N 37°46' W 122°20'0 0.1
2015-Jan-24 12:31N 37°45' W 122°20'0 0.1
2015-Jan-24 11:31N 37°45' W 122°20'0 0.4
2015-Jan-24 10:33N 37°45' W 122°20'1010.2
2015-Jan-24 09:34N 37°54' W 122°26'1211.8
2015-Jan-24 08:34N 38°03' W 122°17'10 9.7
2015-Jan-24 07:33N 37°57' W 122°27'1313.0
2015-Jan-24 06:33N 37°45' W 122°20'0 0.4
2015-Jan-24 05:31N 37°45' W 122°20'0 0.1
2015-Jan-24 04:31N 37°45' W 122°20'0 0.0
2015-Jan-24 03:31N 37°45' W 122°20'0 0.0
2015-Jan-24 02:31N 37°45' W 122°20'0 0.0
2015-Jan-24 01:28N 37°45' W 122°20'0 0.0
2015-Jan-24 00:31N 37°45' W 122°20'0 0.0
2015-Jan-23 23:31N 37°45' W 122°20'0 0.1
2015-Jan-23 22:31N 37°45' W 122°20'0 0.0
2015-Jan-23 21:31N 37°45' W 122°20'0 0.0
2015-Jan-23 20:31N 37°45' W 122°20'0 0.0
2015-Jan-23 19:31N 37°45' W 122°20'0 0.0
2015-Jan-23 18:28N 37°45' W 122°20'0 0.0
2015-Jan-23 17:31N 37°45' W 122°20'0 0.1
2015-Jan-23 16:31N 37°45' W 122°20'0 0.0
2015-Jan-23 15:31N 37°45' W 122°20'0 0.0
2015-Jan-23 14:31N 37°45' W 122°20'0 0.0
2015-Jan-23 13:31N 37°45' W 122°20'0 0.0
2015-Jan-23 12:31N 37°45' W 122°20'0 0.0
2015-Jan-23 11:31N 37°45' W 122°20'0 0.1
2015-Jan-23 10:31N 37°45' W 122°20'0 0.0
2015-Jan-23 09:31N 37°45' W 122°20'0 0.0
2015-Jan-23 08:31N 37°45' W 122°20'0 0.0
2015-Jan-23 07:31N 37°45' W 122°20'0 0.0
2015-Jan-23 06:31N 37°45' W 122°20'0 0.0
2015-Jan-23 05:31N 37°45' W 122°20'0 0.0
2015-Jan-23 04:31N 37°45' W 122°20'0 0.1
2015-Jan-23 03:25N 37°45' W 122°20'0 0.0
2015-Jan-23 02:31N 37°45' W 122°20'0 0.0
2015-Jan-23 01:22N 37°45' W 122°20'0 0.0
2015-Jan-23 00:31N 37°45' W 122°20'0 0.0
2015-Jan-22 23:31N 37°45' W 122°20'0 0.0
2015-Jan-22 22:31N 37°45' W 122°20'0 0.1
2015-Jan-22 21:31N 37°45' W 122°20'0 0.0
2015-Jan-22 20:31N 37°45' W 122°20'0 0.0
2015-Jan-22 19:31N 37°45' W 122°20'0 0.0
2015-Jan-22 18:31N 37°45' W 122°20'0 0.0
2015-Jan-22 17:25N 37°45' W 122°20'0 0.1
2015-Jan-22 16:31N 37°45' W 122°20'0 0.1
2015-Jan-22 15:31N 37°45' W 122°20'0 0.0
2015-Jan-22 14:31N 37°45' W 122°20'0 0.0
2015-Jan-22 13:31N 37°45' W 122°20'0 0.0
2015-Jan-22 12:28N 37°45' W 122°20'0 0.1
2015-Jan-22 11:31N 37°45' W 122°20'0 0.1
2015-Jan-22 10:31N 37°45' W 122°20'0 0.0
2015-Jan-22 09:33N 37°45' W 122°20'0 0.0
2015-Jan-22 08:33N 37°45' W 122°20'1 0.7
2015-Jan-22 07:34N 37°45' W 122°21'1211.7
2015-Jan-22 06:33N 37°47' W 122°35'10 9.8
2015-Jan-22 05:33N 37°42' W 122°46'7 6.9
2015-Jan-22 04:33N 37°38' W 122°53'1313.5
2015-Jan-22 03:34N 37°27' W 123°03'1615.6
2015-Jan-22 02:33N 37°11' W 123°02'1515.3
2015-Jan-22 01:34N 36°56' W 122°57'1515.4
2015-Jan-22 00:33N 36°42' W 122°50'1615.7
2015-Jan-21 23:33N 36°28' W 122°41'1116.1
2015-Jan-21 22:50N 36°18' W 122°33'116.0
2015-Jan-21 22:46N 36°17' W 122°33'315.5
2015-Jan-21 22:33N 36°14' W 122°31'1515.4
2015-Jan-21 21:33N 36°01' W 122°21'1515.2
2015-Jan-21 20:34N 35°48' W 122°11'1515.4
2015-Jan-21 19:34N 35°36' W 121°60'1515.4
2015-Jan-21 18:33N 35°24' W 121°48'1815.6
2015-Jan-21 17:25N 35°10' W 121°34'1515.7
2015-Jan-21 16:27N 34°58' W 121°23'1415.6
2015-Jan-21 15:33N 34°47' W 121°12'1515.0
2015-Jan-21 14:33N 34°35' W 121°01'2814.3
2015-Jan-21 12:33N 34°22' W 120°31'3316.2
2015-Jan-21 10:31N 34°13' W 119°52'1716.6
2015-Jan-21 09:29N 34°08' W 119°32'5513.1
2015-Jan-21 05:18N 33°44' W 118°33'1211.0
2015-Jan-21 04:14N 33°38' W 118°20'8 9.8
2015-Jan-21 03:25N 33°41' W 118°11'5 5.9
2015-Jan-21 02:30N 33°46' W 118°13'0 0.2
2015-Jan-21 00:26N 33°46' W 118°13'0 0.0
2015-Jan-20 23:29N 33°46' W 118°13'0 0.0
2015-Jan-20 22:29N 33°46' W 118°13'0 0.0
2015-Jan-20 21:32N 33°46' W 118°13'0 0.0
2015-Jan-20 20:32N 33°46' W 118°13'0 0.0
2015-Jan-20 19:32N 33°46' W 118°13'0 0.0
2015-Jan-20 18:32N 33°46' W 118°13'0 0.0
2015-Jan-20 17:32N 33°46' W 118°13'0 0.0
2015-Jan-20 16:32N 33°46' W 118°13'0 0.0
2015-Jan-20 15:32N 33°46' W 118°13'0 0.0
2015-Jan-20 14:32N 33°46' W 118°13'4 3.6
2015-Jan-20 13:34N 33°43' W 118°11'8 8.0
2015-Jan-20 12:34N 33°36' W 118°15'9 9.2
2015-Jan-20 11:33N 33°39' W 118°26'10 9.6
2015-Jan-20 10:33N 33°43' W 118°36'1010.4
2015-Jan-20 09:33N 33°49' W 118°47'1211.9
2015-Jan-20 08:32N 33°55' W 118°59'1212.6
2015-Jan-20 07:33N 34°01' W 119°12'1717.4
2015-Jan-20 06:34N 34°06' W 119°32'1717.0
2015-Jan-20 05:32N 34°11' W 119°52'3417.3
2015-Jan-20 03:33N 34°20' W 120°33'1717.4
2015-Jan-20 02:33N 34°24' W 120°53'1717.1
2015-Jan-20 01:33N 34°20' W 121°13'1717.0
2015-Jan-20 00:34N 34°16' W 121°33'1716.9
2015-Jan-19 23:33N 34°14' W 121°53'1717.0
2015-Jan-19 22:33N 34°10' W 122°13'1817.6
2015-Jan-19 21:33N 34°06' W 122°34'1817.6
2015-Jan-19 20:33N 34°02' W 122°55'1817.5
2015-Jan-19 19:33N 33°59' W 123°15'1717.0
2015-Jan-19 18:33N 33°56' W 123°36'1616.4
2015-Jan-19 17:33N 33°52' W 123°55'  

Dump ship's entire track history